Time,TemperatureF,DewpointF,PressureIn,WindDirection,WindDirectionDegrees,WindSpeedMPH,WindSpeedGustMPH,Humidity,HourlyPrecipIn,Conditions,Clouds,dailyrainin,SoftwareType,DateUTC
2013-05-02 00:03:00,62.0,-99.9,30.24,ENE,66,15.0,19.0,-999,-99.99,,,-99.99,,2013-05-02 04:03:00,
2013-05-02 00:12:00,63.0,-99.9,30.24,ENE,64,16.0,22.0,-999,-99.99,,,-99.99,,2013-05-02 04:12:00,
2013-05-02 00:23:00,63.0,-99.9,30.24,ENE,59,11.0,18.0,-999,-99.99,,,-99.99,,2013-05-02 04:23:00,
2013-05-02 00:33:00,63.0,-99.9,30.24,ENE,60,11.0,19.0,-999,-99.99,,,-99.99,,2013-05-02 04:33:00,
2013-05-02 00:43:00,63.0,-99.9,30.24,ENE,60,14.0,22.0,-999,-99.99,,,-99.99,,2013-05-02 04:43:00,
2013-05-02 00:52:00,63.0,-99.9,30.24,ENE,60,13.0,20.0,-999,-99.99,,,-99.99,,2013-05-02 04:52:00,
2013-05-02 01:02:00,63.0,-99.9,30.24,ENE,60,11.0,19.0,-999,-99.99,,,-99.99,,2013-05-02 05:02:00,
2013-05-02 01:12:00,63.0,-99.9,30.24,ENE,59,11.0,20.0,-999,-99.99,,,-99.99,,2013-05-02 05:12:00,
2013-05-02 01:22:00,63.0,-99.9,30.24,ENE,57,13.0,21.0,-999,-99.99,,,-99.99,,2013-05-02 05:22:00,
2013-05-02 01:32:00,63.0,-99.9,30.23,ENE,65,13.0,19.0,-999,-99.99,,,-99.99,,2013-05-02 05:32:00,
2013-05-02 01:42:00,63.0,-99.9,30.23,ENE,57,10.0,19.0,-999,-99.99,,,-99.99,,2013-05-02 05:42:00,
2013-05-02 01:52:00,63.0,-99.9,30.23,ENE,60,13.0,17.0,-999,-99.99,,,-99.99,,2013-05-02 05:52:00,
2013-05-02 02:02:00,63.0,-99.9,30.23,ENE,64,11.0,20.0,-999,-99.99,,,-99.99,,2013-05-02 06:02:00,
2013-05-02 02:12:00,63.0,-99.9,30.23,ENE,62,12.0,19.0,-999,-99.99,,,-99.99,,2013-05-02 06:12:00,
2013-05-02 02:22:00,63.0,-99.9,30.23,ENE,70,13.0,18.0,-999,-99.99,,,-99.99,,2013-05-02 06:22:00,
2013-05-02 02:32:00,62.0,-99.9,30.23,ENE,68,11.0,18.0,-999,-99.99,,,-99.99,,2013-05-02 06:32:00,
2013-05-02 02:42:00,62.0,-99.9,30.23,ENE,63,12.0,16.0,-999,-99.99,,,-99.99,,2013-05-02 06:42:00,
2013-05-02 02:52:00,62.0,-99.9,30.23,ENE,68,9.0,12.0,-999,-99.99,,,-99.99,,2013-05-02 06:52:00,
2013-05-02 03:02:00,62.0,-99.9,30.22,ENE,57,11.0,16.0,-999,-99.99,,,-99.99,,2013-05-02 07:02:00,
2013-05-02 03:11:00,62.0,-99.9,30.22,NE,53,11.0,17.0,-999,-99.99,,,-99.99,,2013-05-02 07:11:00,
2013-05-02 03:22:00,62.0,-99.9,30.22,ENE,58,8.0,14.0,-999,-99.99,,,-99.99,,2013-05-02 07:22:00,
2013-05-02 03:32:00,62.0,-99.9,30.22,NE,51,11.0,18.0,-999,-99.99,,,-99.99,,2013-05-02 07:32:00,
2013-05-02 03:42:00,62.0,-99.9,30.22,NE,52,10.0,15.0,-999,-99.99,,,-99.99,,2013-05-02 07:42:00,
2013-05-02 03:52:00,62.0,-99.9,30.22,NE,48,11.0,17.0,-999,-99.99,,,-99.99,,2013-05-02 07:52:00,
2013-05-02 04:02:00,62.0,-99.9,30.22,NE,54,9.0,15.0,-999,-99.99,,,-99.99,,2013-05-02 08:02:00,
2013-05-02 04:11:00,62.0,-99.9,30.22,NE,55,10.0,17.0,-999,-99.99,,,-99.99,,2013-05-02 08:11:00,
2013-05-02 04:22:00,62.0,-99.9,30.22,NE,55,12.0,17.0,-999,-99.99,,,-99.99,,2013-05-02 08:22:00,
2013-05-02 04:32:00,62.0,-99.9,30.22,ENE,59,11.0,16.0,-999,-99.99,,,-99.99,,2013-05-02 08:32:00,
2013-05-02 04:42:00,62.0,-99.9,30.22,NE,56,13.0,19.0,-999,-99.99,,,-99.99,,2013-05-02 08:42:00,
2013-05-02 04:52:00,62.0,-99.9,30.22,ENE,63,13.0,22.0,-999,-99.99,,,-99.99,,2013-05-02 08:52:00,
2013-05-02 05:02:00,62.0,-99.9,30.22,ENE,59,13.0,21.0,-999,-99.99,,,-99.99,,2013-05-02 09:02:00,
2013-05-02 05:12:00,62.0,-99.9,30.22,ENE,59,14.0,23.0,-999,-99.99,,,-99.99,,2013-05-02 09:12:00,
2013-05-02 05:22:00,62.0,-99.9,30.22,ENE,62,9.0,18.0,-999,-99.99,,,-99.99,,2013-05-02 09:22:00,
2013-05-02 05:33:00,62.0,-99.9,30.22,ENE,62,14.0,19.0,-999,-99.99,,,-99.99,,2013-05-02 09:33:00,
2013-05-02 05:43:00,62.0,-99.9,30.22,ENE,68,14.0,18.0,-999,-99.99,,,-99.99,,2013-05-02 09:43:00,
2013-05-02 05:52:00,62.0,-99.9,30.22,ENE,62,12.0,21.0,-999,-99.99,,,-99.99,,2013-05-02 09:52:00,
2013-05-02 06:03:00,61.0,-99.9,30.22,NE,55,14.0,18.0,-999,-99.99,,,-99.99,,2013-05-02 10:03:00,
2013-05-02 06:12:00,61.0,-99.9,30.22,NE,49,14.0,19.0,-999,-99.99,,,-99.99,,2013-05-02 10:12:00,
2013-05-02 06:23:00,61.0,-99.9,30.22,NE,54,11.0,19.0,-999,-99.99,,,-99.99,,2013-05-02 10:23:00,
2013-05-02 06:33:00,61.0,-99.9,30.22,NE,54,14.0,20.0,-999,-99.99,,,-99.99,,2013-05-02 10:33:00,
2013-05-02 06:42:00,61.0,-99.9,30.23,NE,52,15.0,21.0,-999,-99.99,,,-99.99,,2013-05-02 10:42:00,
2013-05-02 06:53:00,61.0,-99.9,30.23,NE,56,9.0,18.0,-999,-99.99,,,-99.99,,2013-05-02 10:53:00,
2013-05-02 07:02:00,61.0,-99.9,30.24,ENE,62,13.0,19.0,-999,-99.99,,,-99.99,,2013-05-02 11:02:00,
2013-05-02 07:12:00,61.0,-99.9,30.24,ENE,62,13.0,18.0,-999,-99.99,,,-99.99,,2013-05-02 11:12:00,
2013-05-02 07:22:00,61.0,-99.9,30.24,ENE,62,12.0,19.0,-999,-99.99,,,-99.99,,2013-05-02 11:22:00,
2013-05-02 07:32:00,61.0,-99.9,30.24,ENE,60,12.0,16.0,-999,-99.99,,,-99.99,,2013-05-02 11:32:00,
2013-05-02 07:42:00,61.0,-99.9,30.24,NE,54,13.0,20.0,-999,-99.99,,,-99.99,,2013-05-02 11:42:00,
2013-05-02 07:52:00,61.0,-99.9,30.24,ENE,60,13.0,22.0,-999,-99.99,,,-99.99,,2013-05-02 11:52:00,
2013-05-02 08:01:00,61.0,-99.9,30.24,NE,53,12.0,19.0,-999,-99.99,,,-99.99,,2013-05-02 12:01:00,
2013-05-02 08:12:00,61.0,-99.9,30.24,NE,56,12.0,18.0,-999,-99.99,,,-99.99,,2013-05-02 12:12:00,
2013-05-02 08:22:00,61.0,-99.9,30.24,ENE,57,15.0,22.0,-999,-99.99,,,-99.99,,2013-05-02 12:22:00,
2013-05-02 08:32:00,61.0,-99.9,30.24,NE,48,13.0,19.0,-999,-99.99,,,-99.99,,2013-05-02 12:32:00,
2013-05-02 08:42:00,61.0,-99.9,30.25,ENE,57,12.0,19.0,-999,-99.99,,,-99.99,,2013-05-02 12:42:00,
2013-05-02 08:52:00,61.0,-99.9,30.25,ENE,59,13.0,20.0,-999,-99.99,,,-99.99,,2013-05-02 12:52:00,
2013-05-02 09:01:00,61.0,-99.9,30.25,ENE,62,12.0,19.0,-999,-99.99,,,-99.99,,2013-05-02 13:01:00,
2013-05-02 09:11:00,61.0,-99.9,30.25,ENE,64,11.0,19.0,-999,-99.99,,,-99.99,,2013-05-02 13:11:00,
2013-05-02 09:22:00,61.0,-99.9,30.25,ENE,58,11.0,16.0,-999,-99.99,,,-99.99,,2013-05-02 13:22:00,
2013-05-02 09:32:00,62.0,-99.9,30.25,NE,52,10.0,16.0,-999,-99.99,,,-99.99,,2013-05-02 13:32:00,
2013-05-02 09:42:00,62.0,-99.9,30.25,NE,55,14.0,20.0,-999,-99.99,,,-99.99,,2013-05-02 13:42:00,
2013-05-02 09:52:00,62.0,-99.9,30.25,NE,54,15.0,21.0,-999,-99.99,,,-99.99,,2013-05-02 13:52:00,
2013-05-02 10:02:00,62.0,-99.9,30.25,ENE,60,15.0,22.0,-999,-99.99,,,-99.99,,2013-05-02 14:02:00,
2013-05-02 10:11:00,62.0,-99.9,30.25,ENE,59,16.0,23.0,-999,-99.99,,,-99.99,,2013-05-02 14:11:00,
2013-05-02 10:22:00,63.0,-99.9,30.26,NE,51,13.0,18.0,-999,-99.99,,,-99.99,,2013-05-02 14:22:00,
2013-05-02 10:32:00,63.0,-99.9,30.26,ENE,64,15.0,24.0,-999,-99.99,,,-99.99,,2013-05-02 14:32:00,
2013-05-02 10:43:00,63.0,-99.9,30.26,NE,52,17.0,25.0,-999,-99.99,,,-99.99,,2013-05-02 14:43:00,
2013-05-02 10:52:00,64.0,-99.9,30.26,NE,51,14.0,26.0,-999,-99.99,,,-99.99,,2013-05-02 14:52:00,
2013-05-02 11:02:00,63.0,-99.9,30.27,NE,55,20.0,25.0,-999,-99.99,,,-99.99,,2013-05-02 15:02:00,
2013-05-02 11:12:00,64.0,-99.9,30.27,NE,50,17.0,24.0,-999,-99.99,,,-99.99,,2013-05-02 15:12:00,
2013-05-02 11:22:00,64.0,-99.9,30.27,ENE,57,16.0,23.0,-999,-99.99,,,-99.99,,2013-05-02 15:22:00,
2013-05-02 11:33:00,64.0,-99.9,30.27,NE,53,14.0,23.0,-999,-99.99,,,-99.99,,2013-05-02 15:33:00,
2013-05-02 11:43:00,64.0,-99.9,30.27,NE,51,15.0,24.0,-999,-99.99,,,-99.99,,2013-05-02 15:43:00,
2013-05-02 12:03:00,64.0,-99.9,30.28,NE,47,17.0,23.0,-999,-99.99,,,-99.99,,2013-05-02 16:03:00,
2013-05-02 12:13:00,63.0,-99.9,30.28,NE,46,19.0,25.0,-999,-99.99,,,-99.99,,2013-05-02 16:13:00,
2013-05-02 12:23:00,63.0,-99.9,30.27,NE,52,16.0,25.0,-999,-99.99,,,-99.99,,2013-05-02 16:23:00,
2013-05-02 12:32:00,64.0,-99.9,30.27,ENE,60,18.0,26.0,-999,-99.99,,,-99.99,,2013-05-02 16:32:00,
2013-05-02 12:43:00,64.0,-99.9,30.27,NE,53,13.0,23.0,-999,-99.99,,,-99.99,,2013-05-02 16:43:00,
2013-05-02 12:52:00,64.0,-99.9,30.27,NE,51,15.0,25.0,-999,-99.99,,,-99.99,,2013-05-02 16:52:00,
2013-05-02 13:02:00,63.0,-99.9,30.27,NE,44,18.0,24.0,-999,-99.99,,,-99.99,,2013-05-02 17:02:00,
2013-05-02 13:12:00,63.0,-99.9,30.27,NE,46,16.0,23.0,-999,-99.99,,,-99.99,,2013-05-02 17:12:00,
2013-05-02 13:22:00,62.0,-99.9,30.27,NE,39,18.0,25.0,-999,-99.99,,,-99.99,,2013-05-02 17:22:00,
2013-05-02 13:32:00,62.0,-99.9,30.27,NE,40,18.0,24.0,-999,-99.99,,,-99.99,,2013-05-02 17:32:00,
2013-05-02 13:42:00,62.0,-99.9,30.27,NE,39,17.0,26.0,-999,-99.99,,,-99.99,,2013-05-02 17:42:00,
2013-05-02 13:52:00,62.0,-99.9,30.27,NE,43,17.0,23.0,-999,-99.99,,,-99.99,,2013-05-02 17:52:00,
2013-05-02 14:02:00,62.0,-99.9,30.27,NE,36,19.0,25.0,-999,-99.99,,,-99.99,,2013-05-02 18:02:00,
2013-05-02 14:12:00,62.0,-99.9,30.27,NE,35,19.0,24.0,-999,-99.99,,,-99.99,,2013-05-02 18:12:00,
2013-05-02 14:22:00,62.0,-99.9,30.27,NNE,33,18.0,24.0,-999,-99.99,,,-99.99,,2013-05-02 18:22:00,
2013-05-02 14:32:00,62.0,-99.9,30.26,NE,34,19.0,23.0,-999,-99.99,,,-99.99,,2013-05-02 18:32:00,
2013-05-02 14:42:00,62.0,-99.9,30.26,NE,34,19.0,25.0,-999,-99.99,,,-99.99,,2013-05-02 18:42:00,
2013-05-02 14:52:00,62.0,-99.9,30.26,NNE,33,20.0,24.0,-999,-99.99,,,-99.99,,2013-05-02 18:52:00,
2013-05-02 15:01:00,62.0,-99.9,30.26,NE,34,19.0,25.0,-999,-99.99,,,-99.99,,2013-05-02 19:01:00,
2013-05-02 15:11:00,62.0,-99.9,30.26,NNE,33,22.0,25.0,-999,-99.99,,,-99.99,,2013-05-02 19:11:00,
2013-05-02 15:22:00,62.0,-99.9,30.25,NE,38,18.0,25.0,-999,-99.99,,,-99.99,,2013-05-02 19:22:00,
2013-05-02 15:32:00,62.0,-99.9,30.25,NE,35,19.0,26.0,-999,-99.99,,,-99.99,,2013-05-02 19:32:00,
2013-05-02 15:42:00,62.0,-99.9,30.25,NE,40,17.0,24.0,-999,-99.99,,,-99.99,,2013-05-02 19:42:00,
2013-05-02 15:52:00,62.0,-99.9,30.25,NE,42,17.0,26.0,-999,-99.99,,,-99.99,,2013-05-02 19:52:00,
2013-05-02 16:02:00,62.0,-99.9,30.25,NE,40,19.0,27.0,-999,-99.99,,,-99.99,,2013-05-02 20:02:00,
2013-05-02 16:12:00,62.0,-99.9,30.24,NE,40,18.0,25.0,-999,-99.99,,,-99.99,,2013-05-02 20:12:00,
2013-05-02 16:22:00,62.0,-99.9,30.24,NNE,33,19.0,26.0,-999,-99.99,,,-99.99,,2013-05-02 20:22:00,
2013-05-02 16:32:00,62.0,-99.9,30.24,NE,38,19.0,26.0,-999,-99.99,,,-99.99,,2013-05-02 20:32:00,
2013-05-02 16:42:00,62.0,-99.9,30.24,NE,37,20.0,25.0,-999,-99.99,,,-99.99,,2013-05-02 20:42:00,
2013-05-02 16:52:00,62.0,-99.9,30.24,NE,42,18.0,23.0,-999,-99.99,,,-99.99,,2013-05-02 20:52:00,
2013-05-02 17:01:00,62.0,-99.9,30.24,NE,42,17.0,27.0,-999,-99.99,,,-99.99,,2013-05-02 21:01:00,
2013-05-02 17:12:00,62.0,-99.9,30.24,NE,34,19.0,27.0,-999,-99.99,,,-99.99,,2013-05-02 21:12:00,
2013-05-02 17:22:00,62.0,-99.9,30.23,NE,34,21.0,27.0,-999,-99.99,,,-99.99,,2013-05-02 21:22:00,
2013-05-02 17:33:00,62.0,-99.9,30.23,NE,37,19.0,28.0,-999,-99.99,,,-99.99,,2013-05-02 21:33:00,
2013-05-02 17:43:00,62.0,-99.9,30.23,NE,37,19.0,27.0,-999,-99.99,,,-99.99,,2013-05-02 21:43:00,
2013-05-02 17:53:00,62.0,-99.9,30.23,NE,35,20.0,26.0,-999,-99.99,,,-99.99,,2013-05-02 21:53:00,
2013-05-02 18:03:00,62.0,-99.9,30.22,NE,34,23.0,28.0,-999,-99.99,,,-99.99,,2013-05-02 22:03:00,
2013-05-02 18:13:00,62.0,-99.9,30.22,NE,41,18.0,28.0,-999,-99.99,,,-99.99,,2013-05-02 22:13:00,
2013-05-02 18:22:00,62.0,-99.9,30.22,NE,44,18.0,24.0,-999,-99.99,,,-99.99,,2013-05-02 22:22:00,
2013-05-02 18:33:00,62.0,-99.9,30.22,NE,42,19.0,26.0,-999,-99.99,,,-99.99,,2013-05-02 22:33:00,
2013-05-02 18:42:00,62.0,-99.9,30.22,NE,41,20.0,27.0,-999,-99.99,,,-99.99,,2013-05-02 22:42:00,
2013-05-02 18:53:00,62.0,-99.9,30.21,NE,45,20.0,26.0,-999,-99.99,,,-99.99,,2013-05-02 22:53:00,
2013-05-02 19:02:00,62.0,-99.9,30.21,NE,47,19.0,27.0,-999,-99.99,,,-99.99,,2013-05-02 23:02:00,
2013-05-02 19:12:00,62.0,-99.9,30.21,NE,48,17.0,24.0,-999,-99.99,,,-99.99,,2013-05-02 23:12:00,
2013-05-02 19:22:00,62.0,-99.9,30.21,NE,51,16.0,25.0,-999,-99.99,,,-99.99,,2013-05-02 23:22:00,
2013-05-02 19:32:00,62.0,-99.9,30.21,NE,48,16.0,22.0,-999,-99.99,,,-99.99,,2013-05-02 23:32:00,
2013-05-02 19:42:00,62.0,-99.9,30.21,NE,52,16.0,23.0,-999,-99.99,,,-99.99,,2013-05-02 23:42:00,
2013-05-02 19:52:00,61.0,-99.9,30.21,NE,47,17.0,23.0,-999,-99.99,,,-99.99,,2013-05-02 23:52:00,
2013-05-02 20:01:00,61.0,-99.9,30.21,NE,49,15.0,22.0,-999,-99.99,,,-99.99,,2013-05-03 00:01:00,
2013-05-02 20:12:00,61.0,-99.9,30.21,NE,47,16.0,24.0,-999,-99.99,,,-99.99,,2013-05-03 00:12:00,
2013-05-02 20:22:00,61.0,-99.9,30.21,NE,49,17.0,22.0,-999,-99.99,,,-99.99,,2013-05-03 00:22:00,
2013-05-02 20:32:00,61.0,-99.9,30.21,NE,53,16.0,22.0,-999,-99.99,,,-99.99,,2013-05-03 00:32:00,
2013-05-02 20:42:00,62.0,-99.9,30.21,NE,55,15.0,22.0,-999,-99.99,,,-99.99,,2013-05-03 00:42:00,
2013-05-02 20:52:00,62.0,-99.9,30.21,NE,55,17.0,24.0,-999,-99.99,,,-99.99,,2013-05-03 00:52:00,
2013-05-02 21:02:00,62.0,-99.9,30.20,NE,50,15.0,22.0,-999,-99.99,,,-99.99,,2013-05-03 01:02:00,
2013-05-02 21:11:00,61.0,-99.9,30.21,NE,53,16.0,23.0,-999,-99.99,,,-99.99,,2013-05-03 01:11:00,
2013-05-02 21:22:00,62.0,-99.9,30.21,ENE,59,13.0,25.0,-999,-99.99,,,-99.99,,2013-05-03 01:22:00,
2013-05-02 21:32:00,62.0,-99.9,30.21,ENE,58,15.0,22.0,-999,-99.99,,,-99.99,,2013-05-03 01:32:00,
2013-05-02 21:42:00,62.0,-99.9,30.21,ENE,59,14.0,20.0,-999,-99.99,,,-99.99,,2013-05-03 01:42:00,
2013-05-02 21:52:00,62.0,-99.9,30.21,ENE,58,16.0,21.0,-999,-99.99,,,-99.99,,2013-05-03 01:52:00,
2013-05-02 22:02:00,62.0,-99.9,30.21,NE,56,14.0,20.0,-999,-99.99,,,-99.99,,2013-05-03 02:02:00,
2013-05-02 22:11:00,61.0,-99.9,30.21,NE,53,13.0,23.0,-999,-99.99,,,-99.99,,2013-05-03 02:11:00,
2013-05-02 22:22:00,62.0,-99.9,30.21,NE,55,15.0,24.0,-999,-99.99,,,-99.99,,2013-05-03 02:22:00,
2013-05-02 22:32:00,61.0,-99.9,30.22,NE,53,14.0,23.0,-999,-99.99,,,-99.99,,2013-05-03 02:32:00,
2013-05-02 22:42:00,62.0,-99.9,30.22,ENE,60,13.0,21.0,-999,-99.99,,,-99.99,,2013-05-03 02:42:00,
2013-05-02 22:52:00,61.0,-99.9,30.22,ENE,57,11.0,21.0,-999,-99.99,,,-99.99,,2013-05-03 02:52:00,
2013-05-02 23:01:00,61.0,-99.9,30.21,ENE,57,14.0,21.0,-999,-99.99,,,-99.99,,2013-05-03 03:01:00,
2013-05-02 23:11:00,61.0,-99.9,30.21,ENE,59,15.0,21.0,-999,-99.99,,,-99.99,,2013-05-03 03:11:00,
2013-05-02 23:22:00,61.0,-99.9,30.21,ENE,59,10.0,21.0,-999,-99.99,,,-99.99,,2013-05-03 03:22:00,
2013-05-02 23:33:00,62.0,-99.9,30.22,ENE,58,13.0,21.0,-999,-99.99,,,-99.99,,2013-05-03 03:33:00,
2013-05-02 23:43:00,61.0,-99.9,30.22,NE,54,12.0,17.0,-999,-99.99,,,-99.99,,2013-05-03 03:43:00,
2013-05-02 23:53:00,62.0,-99.9,30.21,NE,56,11.0,20.0,-999,-99.99,,,-99.99,,2013-05-03 03:53:00,